»·PEaware :: N973SE KOXR-KSBP

N973SE :: KOXR-KSBP

FLIGHT INFORMATION

Flight Status: Arrived
Operator: Privately registered:
United States
More flights under this callsign
Pilot: Stig E. (4778)
Aircraft: CESSNA 310
(C310)
More flights by this aircraft type
Origin: KOXR Oxnard
United States
Destination: KSBP San Luis Co Regl
United States
More flights between these airports :: More routes between these airports
Route: FLW MISHI
File this flight plan on PilotEdge
Remarks:
Altitude:
(Current/Filed)
12,500ft
Speed:
(Current/Filed)
170kts
Departed: 04-Feb-19 12:12 PM
Arrived: 04-Feb-19 12:51 PM
Distance/Time
Traveled:
94nm/0:39
Distance/Time
To Go:
Arrived

Flight Plot

Page will automatically refresh every two minutes.

Flight plan parsing failed; only flown route is shown


Map Options




Map Legend


Flown Route
Filed Route
Departure Airport
Arrival Airport
Navaid (VOR, NDB)
Fix

Horizontal Profiles

Position Reports

Time Latitude Longitude Heading Altitude Ground
Speed
04-Feb-19 11:19 34.198719 -119.202074 0 43ft 0kts
04-Feb-19 11:20 34.198719 -119.202074 0 43ft 0kts
04-Feb-19 11:21 34.198719 -119.202074 0 43ft 0kts
04-Feb-19 11:22 34.198719 -119.202074 0 43ft 0kts
04-Feb-19 11:23 34.198719 -119.202074 0 43ft 0kts
04-Feb-19 11:24 34.198719 -119.202074 0 43ft 0kts
04-Feb-19 11:25 34.198719 -119.202074 0 43ft 0kts
04-Feb-19 11:26 34.198719 -119.202074 0 43ft 0kts
04-Feb-19 11:27 34.198719 -119.202074 0 43ft 0kts
04-Feb-19 11:28 34.198719 -119.202074 0 43ft 0kts
04-Feb-19 11:29 34.198719 -119.202074 0 43ft 0kts
04-Feb-19 11:38 34.198719 -119.202074 360 43ft 0kts
04-Feb-19 11:39 34.198719 -119.202074 360 43ft 0kts
04-Feb-19 11:40 34.198719 -119.202074 360 43ft 0kts
04-Feb-19 11:41 34.198719 -119.202074 360 43ft 0kts
04-Feb-19 11:42 34.198719 -119.202074 360 43ft 0kts
04-Feb-19 11:43 34.198978 -119.202072 0 43ft 6kts
04-Feb-19 11:44 34.199205 -119.202059 4 43ft 0kts
04-Feb-19 11:45 34.199205 -119.202059 4 43ft 0kts
04-Feb-19 11:46 34.199205 -119.202059 4 43ft 0kts
04-Feb-19 11:47 34.199205 -119.202059 4 43ft 0kts
04-Feb-19 11:47 34.199205 -119.202059 4 43ft 0kts
04-Feb-19 11:49 34.199205 -119.202059 4 43ft 0kts
04-Feb-19 11:50 34.199205 -119.202059 4 43ft 0kts
04-Feb-19 11:51 34.199205 -119.202059 4 43ft 0kts
04-Feb-19 11:51 34.199205 -119.202059 4 43ft 0kts
04-Feb-19 11:53 34.199205 -119.202059 4 43ft 0kts
04-Feb-19 11:54 34.199205 -119.202059 4 43ft 0kts
04-Feb-19 11:54 34.199205 -119.202059 4 43ft 0kts
04-Feb-19 11:55 34.199205 -119.202059 4 43ft 0kts
04-Feb-19 11:56 34.199205 -119.202059 4 43ft 0kts
04-Feb-19 11:57 34.199205 -119.202059 4 43ft 0kts
04-Feb-19 11:58 34.199205 -119.202059 4 43ft 0kts
04-Feb-19 11:59 34.199205 -119.202059 4 43ft 0kts
04-Feb-19 12:00 34.199205 -119.202059 4 43ft 0kts
04-Feb-19 12:01 34.199205 -119.202059 4 43ft 0kts
04-Feb-19 12:02 34.199205 -119.202059 4 43ft 0kts
04-Feb-19 12:03 34.199205 -119.202059 4 43ft 0kts
04-Feb-19 12:04 34.199205 -119.202059 4 43ft 0kts
04-Feb-19 12:05 34.199205 -119.202059 4 43ft 0kts
04-Feb-19 12:06 34.199205 -119.202059 4 43ft 0kts
04-Feb-19 12:07 34.199295 -119.202050 5 43ft 4kts
04-Feb-19 12:08 34.199730 -119.198856 91 45ft 12kts
04-Feb-19 12:09 34.199945 -119.197533 357 46ft 0kts
04-Feb-19 12:10 34.199945 -119.197533 357 46ft 0kts
04-Feb-19 12:11 34.200726 -119.199519 269 44ft 61kts
04-Feb-19 12:12 34.201397 -119.241807 282 1020ft 160kts
04-Feb-19 12:13 34.239872 -119.271283 337 2052ft 168kts
04-Feb-19 12:14 34.282156 -119.294975 337 3054ft 167kts
04-Feb-19 12:15 34.324302 -119.319571 337 4057ft 170kts
04-Feb-19 12:16 34.367525 -119.344938 337 5061ft 176kts
04-Feb-19 12:17 34.413029 -119.370321 337 6069ft 183kts
04-Feb-19 12:18 34.460058 -119.396846 326 7078ft 188kts
04-Feb-19 12:19 34.505684 -119.430574 324 8093ft 191kts
04-Feb-19 12:20 34.551896 -119.464550 321 9108ft 191kts
04-Feb-19 12:21 34.597588 -119.498187 320 10114ft 189kts
04-Feb-19 12:22 34.642518 -119.531459 318 11114ft 186kts
04-Feb-19 12:23 34.686218 -119.563776 317 12109ft 178kts
04-Feb-19 12:24 34.730798 -119.596842 318 12466ft 201kts
04-Feb-19 12:25 34.780780 -119.633755 319 12482ft 211kts
04-Feb-19 12:26 34.830949 -119.670872 318 12521ft 206kts
04-Feb-19 12:27 34.877873 -119.705619 317 12243ft 187kts
04-Feb-19 12:28 34.923587 -119.739659 318 11262ft 193kts
04-Feb-19 12:29 34.970039 -119.774188 319 10287ft 196kts
04-Feb-19 12:30 35.017118 -119.809235 320 9305ft 196kts
04-Feb-19 12:31 35.063040 -119.843482 320 8307ft 187kts
04-Feb-19 12:32 35.095086 -119.884731 265 7350ft 160kts
04-Feb-19 12:33 35.098381 -119.939618 266 6380ft 162kts
04-Feb-19 12:34 35.102154 -119.994817 268 5391ft 164kts
04-Feb-19 12:35 35.106074 -120.049820 267 4606ft 151kts
04-Feb-19 12:36 35.109395 -120.096807 265 4321ft 138kts
04-Feb-19 12:37 35.112706 -120.144256 268 3799ft 141kts
04-Feb-19 12:38 35.115986 -120.191720 269 3281ft 140kts
04-Feb-19 12:39 35.119071 -120.236209 269 3239ft 126kts
04-Feb-19 12:40 35.122023 -120.279308 271 3216ft 127kts
04-Feb-19 12:41 35.124969 -120.322052 268 3217ft 126kts
04-Feb-19 12:42 35.127931 -120.366341 271 2923ft 137kts
04-Feb-19 12:43 35.130998 -120.410424 266 2847ft 121kts
04-Feb-19 12:44 35.133687 -120.450629 269 2846ft 116kts
04-Feb-19 12:45 35.146587 -120.487126 297 2845ft 123kts
04-Feb-19 12:46 35.167539 -120.523248 300 2505ft 141kts
04-Feb-19 12:47 35.189596 -120.560837 300 1925ft 121kts
04-Feb-19 12:48 35.208702 -120.593327 303 1165ft 110kts
04-Feb-19 12:49 35.225733 -120.619950 295 488ft 96kts
04-Feb-19 12:50 35.238221 -120.642673 305 216ft 36kts
04-Feb-19 12:51 35.239839 -120.644031 42 215ft 0kts
04-Feb-19 12:52 35.238543 -120.640152 61 216ft 18kts
04-Feb-19 12:53 35.238614 -120.639166 95 216ft 0kts

Navigation Log

Ident Type
Flight plan parsing failed, navigation log unavailable